createdAt,value
2018-04-12T00:00:10.145Z,969.7
2018-04-12T00:08:27.987Z,969.8
2018-04-12T00:29:59.256Z,969.6
2018-04-12T07:46:48.010Z,969
2018-04-12T07:47:49.386Z,969
2018-04-12T07:48:52.780Z,968.8
2018-04-12T07:49:54.194Z,968.8
2018-04-12T07:50:55.515Z,968.6
2018-04-12T07:51:56.916Z,968.7
2018-04-12T07:53:07.945Z,968.6
2018-04-12T07:54:09.371Z,968.7
2018-04-12T07:55:10.742Z,968.8
2018-04-12T07:56:12.089Z,968.7
2018-04-12T07:57:13.480Z,968.8
2018-04-12T07:58:14.991Z,968.6
2018-04-12T07:59:16.404Z,968.6
2018-04-12T08:00:26.882Z,968.7
2018-04-12T08:01:28.218Z,968.4
2018-04-12T08:02:29.480Z,968.5
2018-04-12T08:03:30.935Z,968.4
2018-04-12T08:04:32.279Z,968.6
2018-04-12T08:05:33.677Z,968.5
2018-04-12T08:06:35.263Z,968.7
2018-04-12T08:07:36.582Z,968.8
2018-04-12T08:08:38.008Z,968.9
2018-04-12T08:09:39.360Z,968.8
2018-04-12T08:10:40.769Z,968.8
2018-04-12T08:11:42.215Z,968.6
2018-04-12T08:12:53.003Z,968.8
2018-04-12T08:13:54.974Z,968.9
2018-04-12T08:14:56.297Z,968.6
2018-04-12T08:15:57.609Z,968.5
2018-04-12T08:16:58.887Z,968.3
2018-04-12T08:18:00.452Z,968.5
2018-04-12T08:19:02.026Z,968.4
2018-04-12T08:20:03.581Z,968.5
2018-04-12T08:21:05.039Z,968.4
2018-04-12T08:22:06.451Z,968.5
2018-04-12T08:23:07.898Z,968.3
2018-04-12T08:24:09.633Z,968.3
2018-04-12T08:25:11.193Z,968.3
2018-04-12T08:26:12.607Z,968.2
2018-04-12T08:27:16.706Z,968.2
2018-04-12T08:28:18.159Z,968
2018-04-12T08:29:19.614Z,968.1
2018-04-12T08:30:21.075Z,967.9
2018-04-12T08:31:22.455Z,967.9
2018-04-12T08:32:24.105Z,968
2018-04-12T08:33:25.665Z,968.3
2018-04-12T08:34:27.415Z,968.2
2018-04-12T08:35:30.104Z,968.3
2018-04-12T08:36:32.972Z,968.4
2018-04-12T08:37:34.414Z,968.4
2018-04-12T08:38:35.904Z,968.3
2018-04-12T08:39:37.690Z,968.2
2018-04-12T08:40:41.951Z,968.2
2018-04-12T08:41:43.555Z,968.1
2018-04-12T08:42:53.703Z,968.3
2018-04-12T08:43:55.482Z,968.1
2018-04-12T08:44:56.891Z,968.2
2018-04-12T08:45:58.374Z,967.8
2018-04-12T08:47:06.216Z,968.3
2018-04-12T08:48:07.821Z,968.3
2018-04-12T08:49:09.271Z,968.1
2018-04-12T08:50:10.906Z,968
2018-04-12T08:51:12.327Z,968
2018-04-12T08:52:13.809Z,968
2018-04-12T08:53:15.395Z,968.1
2018-04-12T08:54:16.896Z,968.1
2018-04-12T08:55:18.305Z,968
2018-04-12T08:56:19.791Z,967.9
2018-04-12T08:57:24.799Z,967.9
2018-04-12T08:58:26.237Z,968
2018-04-12T08:59:27.738Z,967.8
2018-04-12T09:00:29.295Z,967.9
2018-04-12T09:01:31.495Z,968
2018-04-12T09:02:32.934Z,968.1
2018-04-12T09:03:34.542Z,967.9
2018-04-12T09:04:35.912Z,967.8
2018-04-12T09:05:37.384Z,967.8
2018-04-12T09:06:38.771Z,967.8
2018-04-12T09:07:40.194Z,967.7
2018-04-12T09:08:41.646Z,967.7
2018-04-12T09:09:43.029Z,967.9
2018-04-12T09:10:44.863Z,967.9
2018-04-12T09:11:46.299Z,967.9
2018-04-12T09:12:47.755Z,967.9
2018-04-12T09:13:49.188Z,967.9
2018-04-12T09:14:50.744Z,967.6
2018-04-12T09:15:52.293Z,967.7
2018-04-12T09:16:53.842Z,967.6
2018-04-12T09:17:55.412Z,967.7
2018-04-12T09:18:57.025Z,967.7
2018-04-12T09:19:58.759Z,967.5
2018-04-12T09:21:00.312Z,967.7
2018-04-12T09:22:04.607Z,967.5
2018-04-12T09:23:06.137Z,967.3
2018-04-12T09:24:07.629Z,967.6
2018-04-12T09:25:09.100Z,967.7
2018-04-12T09:26:10.658Z,967.5
2018-04-12T09:27:12.064Z,967.4
2018-04-12T09:28:13.698Z,967.5
2018-04-12T09:29:15.212Z,967.5
2018-04-12T09:30:16.673Z,967.6
2018-04-12T09:31:18.236Z,967.4
2018-04-12T09:32:19.684Z,967.7
2018-04-12T09:33:21.137Z,967.9
2018-04-12T09:34:22.700Z,967.7
2018-04-12T09:35:24.185Z,967.4
2018-04-12T09:36:25.785Z,967.5
2018-04-12T09:37:31.387Z,967.5
2018-04-12T09:38:32.815Z,967.5
2018-04-12T09:39:34.373Z,967.4
2018-04-12T09:40:37.266Z,967.6
2018-04-12T09:41:38.772Z,967.7
2018-04-12T09:42:40.222Z,967.8
2018-04-12T09:43:41.674Z,967.5
2018-04-12T09:44:43.401Z,967.8
2018-04-12T09:45:44.859Z,967.6
2018-04-12T09:46:46.349Z,967.7
2018-04-12T09:47:47.755Z,967.7
2018-04-12T09:48:49.203Z,967.7
2018-04-12T09:49:50.592Z,967.7
2018-04-12T09:50:52.069Z,967.5
2018-04-12T09:51:53.604Z,967.8
2018-04-12T09:52:55.120Z,967.9
2018-04-12T09:53:56.733Z,968
2018-04-12T09:54:58.213Z,967.9
2018-04-12T09:55:59.700Z,968
2018-04-12T09:57:01.346Z,968
2018-04-12T09:58:02.791Z,968.1
2018-04-12T10:00:11.592Z,968
2018-04-12T10:01:12.973Z,968
2018-04-12T10:02:14.767Z,968
2018-04-12T10:03:16.152Z,968.1
2018-04-12T10:04:17.547Z,968.2
2018-04-12T10:05:19.052Z,968
2018-04-12T10:06:21.621Z,968
2018-04-12T10:07:23.279Z,967.8
2018-04-12T10:08:24.773Z,967.7
2018-04-12T10:09:26.213Z,967.6
2018-04-12T10:10:27.663Z,967.5
2018-04-12T10:11:29.056Z,967.6
2018-04-12T10:12:33.164Z,967.6
2018-04-12T10:13:34.746Z,967.6
2018-04-12T10:14:36.182Z,967.7
2018-04-12T10:15:37.569Z,967.8
2018-04-12T10:16:39.024Z,967.7
2018-04-12T10:17:43.997Z,967.4
2018-04-12T10:18:45.501Z,967.7
2018-04-12T10:19:46.898Z,967.7
2018-04-12T10:20:48.348Z,967.6
2018-04-12T10:21:49.814Z,967.6
2018-04-12T10:22:51.505Z,967.5
2018-04-12T10:23:52.887Z,967.7
2018-04-12T10:24:54.442Z,967.7
2018-04-12T10:25:58.263Z,967.5
2018-04-12T10:26:59.710Z,967.6
2018-04-12T10:28:01.691Z,967.7
2018-04-12T10:29:03.115Z,967.6
2018-04-12T10:30:05.990Z,967.5
2018-04-12T10:31:07.536Z,967.5
2018-04-12T10:32:10.480Z,967.4
2018-04-12T10:33:12.033Z,967.8
2018-04-12T10:34:13.475Z,967.6
2018-04-12T10:35:15.332Z,967.7
2018-04-12T10:36:16.866Z,967.5
2018-04-12T10:37:18.391Z,967.6
2018-04-12T10:38:21.499Z,967.3
2018-04-12T10:39:26.049Z,967.4
2018-04-12T10:40:27.540Z,967.4
2018-04-12T10:41:29.196Z,967.4
2018-04-12T10:42:30.744Z,967.5
2018-04-12T10:43:37.087Z,967.4
2018-04-12T10:44:38.704Z,967.1
2018-04-12T10:45:46.207Z,967.4
2018-04-12T10:46:47.698Z,967.3
2018-04-12T10:47:49.112Z,967.4
2018-04-12T10:48:50.724Z,967.4
2018-04-12T10:49:56.031Z,967.1
2018-04-12T10:50:57.644Z,967.2
2018-04-12T10:51:59.073Z,967.4
2018-04-12T10:53:00.751Z,967.4
2018-04-12T10:54:02.571Z,967.2
2018-04-12T10:55:07.663Z,967.4
2018-04-12T10:56:09.491Z,967.3
2018-04-12T10:57:11.268Z,967
2018-04-12T10:58:15.995Z,967.2
2018-04-12T10:59:17.511Z,967.2
2018-04-12T11:00:20.963Z,967.2
2018-04-12T11:01:22.358Z,967.1
2018-04-12T11:02:28.368Z,967.1
2018-04-12T11:03:29.985Z,967.2
2018-04-12T11:04:31.820Z,967.1
2018-04-12T11:05:33.313Z,967.3
2018-04-12T11:06:34.989Z,967.3
2018-04-12T11:07:36.649Z,967.1
2018-04-12T11:08:53.719Z,967.4
2018-04-12T11:09:55.302Z,967.4
2018-04-12T11:11:01.168Z,967.2
2018-04-12T11:12:02.819Z,967.3
2018-04-12T11:13:04.716Z,967.3
2018-04-12T11:14:07.834Z,967.2
2018-04-12T11:15:10.637Z,967.2
2018-04-12T11:17:42.340Z,967.3
2018-04-12T11:18:53.330Z,967.2
2018-04-12T11:19:57.138Z,967.4
2018-04-12T11:21:01.372Z,967.4
2018-04-12T11:22:03.272Z,967.4
2018-04-12T11:23:05.321Z,967.4
2018-04-12T11:24:12.042Z,967.5
2018-04-12T11:25:24.317Z,967.4
2018-04-12T11:26:26.408Z,967.3
2018-04-12T11:27:29.027Z,967.3
2018-04-12T11:28:30.603Z,967.2
2018-04-12T11:29:32.315Z,967.6
2018-04-12T11:30:36.090Z,967.4
2018-04-12T11:31:37.666Z,967.5
2018-04-12T11:32:39.128Z,967.4
2018-04-12T11:33:41.022Z,967.5
2018-04-12T11:34:48.926Z,967.4
2018-04-12T11:35:53.847Z,967.3
2018-04-12T11:37:04.741Z,967.4
2018-04-12T11:38:11.667Z,967.4
2018-04-12T11:39:13.231Z,967.1
2018-04-12T11:40:15.177Z,967
2018-04-12T11:41:21.106Z,967.3
2018-04-12T11:42:23.701Z,967.4
2018-04-12T11:43:33.182Z,967.4
2018-04-12T11:44:34.776Z,967.4
2018-04-12T11:45:36.181Z,967.4
2018-04-12T11:46:37.886Z,967.3
2018-04-12T11:47:39.281Z,967.1
2018-04-12T11:48:40.764Z,967.1
2018-04-12T11:49:42.259Z,967.2
2018-04-12T11:50:43.765Z,967.2
2018-04-12T11:51:45.377Z,967.2
2018-04-12T11:52:47.321Z,967.2
2018-04-12T11:53:49.164Z,967
2018-04-12T11:54:50.749Z,967.1
2018-04-12T11:55:52.257Z,967.1
2018-04-12T11:56:55.808Z,967.3
2018-04-12T11:57:57.479Z,967.3
2018-04-12T11:58:58.928Z,967.3
2018-04-12T12:00:00.434Z,967.3
2018-04-12T12:01:02.318Z,967.2
2018-04-12T12:02:03.875Z,967.1
2018-04-12T12:03:05.521Z,967.1
2018-04-12T12:04:07.056Z,967.2
2018-04-12T12:05:08.498Z,967.2
2018-04-12T12:06:10.070Z,967
2018-04-12T12:07:11.565Z,967.2
2018-04-12T12:08:13.096Z,967.1
2018-04-12T12:09:14.601Z,967.1
2018-04-12T12:10:16.298Z,967.1
2018-04-12T12:11:17.741Z,967.2
2018-04-12T12:12:19.430Z,967.2
2018-04-12T12:13:20.817Z,967.2
2018-04-12T12:14:33.305Z,967.2
2018-04-12T12:15:34.757Z,967.1
2018-04-12T12:16:36.245Z,967
2018-04-12T12:17:37.712Z,967
2018-04-12T12:18:39.240Z,966.8
2018-04-12T12:19:40.632Z,967
2018-04-12T12:20:42.077Z,966.9
2018-04-12T12:21:43.707Z,966.9
2018-04-12T12:22:46.253Z,967
2018-04-12T12:23:49.983Z,967.1
2018-04-12T12:24:51.379Z,967
2018-04-12T12:25:53.857Z,967
2018-04-12T12:26:56.738Z,967.1
2018-04-12T12:27:58.522Z,966.7
2018-04-12T12:29:00.149Z,967.1
2018-04-12T12:30:02.216Z,967.1
2018-04-12T12:31:05.733Z,967.1
2018-04-12T12:32:07.302Z,967
2018-04-12T12:33:08.766Z,966.9
2018-04-12T12:34:10.478Z,966.7
2018-04-12T12:35:12.268Z,966.8
2018-04-12T12:36:13.771Z,966.8
2018-04-12T12:37:15.423Z,966.8
2018-04-12T12:38:16.919Z,966.7
2018-04-12T12:39:18.873Z,966.8
2018-04-12T12:40:21.620Z,966.9
2018-04-12T12:41:23.097Z,966.9
2018-04-12T12:42:24.604Z,966.9
2018-04-12T12:43:26.352Z,966.8
2018-04-12T12:44:27.919Z,966.7
2018-04-12T12:45:34.236Z,966.9
2018-04-12T12:46:36.025Z,966.9
2018-04-12T12:47:46.305Z,966.9
2018-04-12T12:48:47.737Z,967
2018-04-12T12:49:49.252Z,967
2018-04-12T12:50:50.696Z,967
2018-04-12T12:51:52.233Z,967
2018-04-12T12:52:53.631Z,966.9
2018-04-12T12:53:55.365Z,966.7
2018-04-12T12:54:57.185Z,967.1
2018-04-12T12:55:59.736Z,967
2018-04-12T12:57:01.491Z,967.1
2018-04-12T12:58:02.962Z,967
2018-04-12T12:59:04.459Z,967
2018-04-12T13:00:08.489Z,966.9
2018-04-12T13:01:09.942Z,966.8
2018-04-12T13:02:19.432Z,967.1
2018-04-12T13:03:28.472Z,967.1
2018-04-12T13:04:29.815Z,967
2018-04-12T13:05:31.264Z,967
2018-04-12T13:06:32.622Z,966.8
2018-04-12T13:07:34.160Z,966.8
2018-04-12T13:08:35.668Z,966.9
2018-04-12T13:09:37.044Z,966.8
2018-04-12T13:10:38.467Z,966.8
2018-04-12T13:11:40.285Z,966.7
2018-04-12T13:12:56.255Z,966.7
2018-04-12T13:13:57.680Z,966.9
2018-04-12T13:14:59.342Z,966.9
2018-04-12T13:16:04.203Z,967
2018-04-12T13:17:06.102Z,966.9
2018-04-12T13:18:09.037Z,967.1
2018-04-12T13:19:10.563Z,967
2018-04-12T13:20:12.017Z,967.1
2018-04-12T13:21:13.517Z,967.2
2018-04-12T13:22:15.090Z,967.3
2018-04-12T13:23:16.513Z,967.3
2018-04-12T13:24:21.473Z,967.1
2018-04-12T13:25:22.951Z,967.2
2018-04-12T13:26:25.613Z,967.2
2018-04-12T13:27:27.058Z,967.3
2018-04-12T13:28:28.454Z,967.1
2018-04-12T13:29:30.082Z,967.3
2018-04-12T13:30:31.652Z,967.2
2018-04-12T13:31:33.382Z,967.3
2018-04-12T13:32:36.895Z,967.3
2018-04-12T13:33:38.299Z,967.3
2018-04-12T13:34:40.839Z,967.2
2018-04-12T13:35:47.362Z,967.4
2018-04-12T13:36:48.882Z,967.5
2018-04-12T13:37:51.702Z,967.5
2018-04-12T13:38:53.176Z,967.6
2018-04-12T13:39:54.721Z,967.5
2018-04-12T13:40:56.910Z,967.5
2018-04-12T13:41:58.621Z,967.6
2018-04-12T13:43:00.127Z,967.6
2018-04-12T13:44:01.638Z,967.6
2018-04-12T13:45:04.880Z,967.3
2018-04-12T13:46:08.553Z,967.4
2018-04-12T13:47:10.764Z,967.7
2018-04-12T13:48:12.605Z,967.6
2018-04-12T13:49:14.147Z,967.6
2018-04-12T13:50:16.395Z,967.5
2018-04-12T13:51:18.105Z,967.5
2018-04-12T13:52:19.648Z,967.3
2018-04-12T13:53:21.101Z,967.4
2018-04-12T13:54:25.381Z,967.4
2018-04-12T13:55:27.615Z,967.3
2018-04-12T13:56:43.750Z,967.3
2018-04-12T13:57:56.401Z,967.5
2018-04-12T13:58:57.924Z,967.5
2018-04-12T13:59:59.964Z,967.3
2018-04-12T14:01:03.399Z,967.5
2018-04-12T14:02:13.473Z,967.6
2018-04-12T14:03:21.363Z,967.6
2018-04-12T14:04:22.801Z,967.5
2018-04-12T14:05:24.195Z,967.6
2018-04-12T14:06:25.924Z,967.3
2018-04-12T14:07:27.572Z,967.4
2018-04-12T14:08:29.097Z,967.6
2018-04-12T14:09:30.570Z,967.6
2018-04-12T14:10:32.108Z,967.6
2018-04-12T14:11:33.518Z,967.4
2018-04-12T14:12:35.450Z,967.6
2018-04-12T14:13:37.971Z,967.5
2018-04-12T14:14:39.409Z,967.5
2018-04-12T14:15:41.208Z,967.6
2018-04-12T14:16:42.765Z,967.8
2018-04-12T14:17:44.319Z,967.5
2018-04-12T14:18:45.875Z,967.3
2018-04-12T14:19:47.662Z,967.5
2018-04-12T14:20:49.258Z,967.5
2018-04-12T14:21:50.737Z,967.6
2018-04-12T14:22:55.081Z,967.5
2018-04-12T14:23:56.719Z,967.5
2018-04-12T14:24:58.211Z,967.3
2018-04-12T14:25:59.669Z,967.7
2018-04-12T14:27:12.073Z,967.6
2018-04-12T14:28:13.530Z,967.5
2018-04-12T14:29:15.201Z,967.4
2018-04-12T14:30:17.071Z,967.5
2018-04-12T14:31:18.906Z,967.6
2018-04-12T14:32:20.479Z,967.4
2018-04-12T14:33:22.335Z,967.4
2018-04-12T14:34:23.813Z,967.4
2018-04-12T14:35:25.565Z,967.4
2018-04-12T14:36:27.335Z,967.3
2018-04-12T14:37:28.737Z,967.5
2018-04-12T14:38:30.215Z,967.4
2018-04-12T14:39:31.978Z,967.4
2018-04-12T14:40:33.538Z,967.3
2018-04-12T14:41:35.027Z,967.4
2018-04-12T14:42:37.013Z,967.3
2018-04-12T14:43:38.432Z,967.2
2018-04-12T14:44:40.051Z,967.4
2018-04-12T14:45:41.498Z,967.3
2018-04-12T14:46:42.924Z,967.3
2018-04-12T14:47:44.515Z,967.3
2018-04-12T14:48:46.037Z,967.3
2018-04-12T14:49:47.663Z,967.1
2018-04-12T14:50:49.109Z,967.1
2018-04-12T14:51:50.760Z,967.3
2018-04-12T14:52:52.441Z,967.2
2018-04-12T14:53:54.136Z,967
2018-04-12T14:54:55.662Z,967.2
2018-04-12T14:55:57.226Z,967.2
2018-04-12T14:56:58.765Z,967.3
2018-04-12T14:58:00.351Z,967
2018-04-12T14:59:02.236Z,967.1
2018-04-12T15:00:04.301Z,967.3
2018-04-12T15:01:05.881Z,967.3
2018-04-12T15:02:07.666Z,967.4
2018-04-12T15:03:09.443Z,967.3
2018-04-12T15:04:10.913Z,967.6
2018-04-12T15:05:12.545Z,967.2
2018-04-12T15:06:14.116Z,967.4
2018-04-12T15:07:15.775Z,967.4
2018-04-12T15:08:17.400Z,967.3
2018-04-12T15:09:18.926Z,967.3
2018-04-12T15:10:20.495Z,967.3
2018-04-12T15:11:24.132Z,967.3
2018-04-12T15:12:25.927Z,967.3
2018-04-12T15:13:27.473Z,967.3
2018-04-12T15:14:28.951Z,967.3
2018-04-12T15:15:30.547Z,967.2
2018-04-12T15:16:31.985Z,967.2
2018-04-12T15:17:34.050Z,967.2
2018-04-12T15:18:35.485Z,967.2
2018-04-12T15:19:39.021Z,967.1
2018-04-12T15:20:40.667Z,967.3
2018-04-12T15:21:42.247Z,967.2
2018-04-12T15:22:44.021Z,967.2
2018-04-12T15:23:45.433Z,967.3
2018-04-12T15:24:46.903Z,967.3
2018-04-12T15:25:48.450Z,967.3
2018-04-12T15:26:49.874Z,967
2018-04-12T15:27:51.318Z,967.2
2018-04-12T15:28:52.774Z,967.2
2018-04-12T15:29:54.238Z,967.1
2018-04-12T15:30:55.976Z,967.1
2018-04-12T15:31:57.596Z,967.1
2018-04-12T15:32:59.047Z,967.1
2018-04-12T15:34:00.566Z,967.1
2018-04-12T15:35:02.174Z,967.1
2018-04-12T15:36:03.916Z,967
2018-04-12T15:37:06.710Z,967
2018-04-12T15:38:08.248Z,967.1
2018-04-12T15:39:09.813Z,967.1
2018-04-12T15:40:11.325Z,967
2018-04-12T15:41:12.752Z,967
2018-04-12T15:42:14.196Z,967.1
2018-04-12T15:43:17.730Z,966.8
2018-04-12T15:44:21.345Z,967.1
2018-04-12T15:45:22.992Z,967.1
2018-04-12T15:46:27.449Z,967.1
2018-04-12T15:47:28.920Z,967.1
2018-04-12T15:48:30.309Z,967.1
2018-04-12T15:49:31.753Z,967.2
2018-04-12T15:50:33.405Z,967.1
2018-04-12T15:51:34.955Z,967.1
2018-04-12T15:52:36.859Z,967.1
2018-04-12T15:53:38.653Z,967.1
2018-04-12T15:54:56.754Z,967
2018-04-12T15:55:58.165Z,967
2018-04-12T15:57:01.487Z,967.1
2018-04-12T15:58:07.660Z,966.9
2018-04-12T15:59:09.809Z,967
2018-04-12T16:00:11.289Z,966.9
2018-04-12T16:01:14.188Z,966.9
2018-04-12T16:02:15.731Z,967.1
2018-04-12T16:03:17.282Z,967
2018-04-12T16:04:25.702Z,966.9
2018-04-12T16:05:27.319Z,967
2018-04-12T16:06:28.859Z,967
2018-04-12T16:07:30.306Z,967
2018-04-12T16:08:31.760Z,966.8
2018-04-12T16:09:33.171Z,967
2018-04-12T16:10:34.588Z,967
2018-04-12T16:11:36.161Z,967
2018-04-12T16:12:37.798Z,967
2018-04-12T16:13:39.238Z,967
2018-04-12T16:14:42.042Z,966.9
2018-04-12T16:15:43.511Z,967
2018-04-12T16:16:47.425Z,967
2018-04-12T16:17:48.939Z,967.1
2018-04-12T16:18:50.337Z,967.1
2018-04-12T16:19:52.028Z,966.8
2018-04-12T16:20:54.045Z,967
2018-04-12T16:21:57.369Z,966.8
2018-04-12T16:22:59.306Z,967
2018-04-12T16:24:00.996Z,967
2018-04-12T16:25:02.449Z,966.7
2018-04-12T16:26:03.951Z,966.9
2018-04-12T16:27:08.751Z,967
2018-04-12T16:28:10.947Z,967
2018-04-12T16:29:12.425Z,966.9
2018-04-12T16:30:13.840Z,966.9
2018-04-12T16:31:23.883Z,967
2018-04-12T16:32:25.347Z,967
2018-04-12T16:33:26.880Z,967
2018-04-12T16:34:28.658Z,967
2018-04-12T16:35:30.089Z,966.9
2018-04-12T16:36:31.513Z,966.9
2018-04-12T16:37:33.059Z,966.8
2018-04-12T16:38:34.787Z,966.7
2018-04-12T16:39:38.269Z,966.9
2018-04-12T16:40:39.797Z,966.8
2018-04-12T16:41:41.449Z,966.9
2018-04-12T16:42:43.113Z,966.9
2018-04-12T16:43:44.538Z,966.9
2018-04-12T16:44:46.090Z,966.9
2018-04-12T16:45:47.595Z,966.9
2018-04-12T16:46:49.016Z,966.9
2018-04-12T16:47:50.408Z,966.8
2018-04-12T16:48:52.078Z,966.9
2018-04-12T16:49:53.564Z,966.9
2018-04-12T16:50:54.983Z,966.9
2018-04-12T16:51:56.405Z,966.9
2018-04-12T16:52:57.823Z,966.9
2018-04-12T16:54:01.351Z,966.8
2018-04-12T16:55:03.217Z,966.9
2018-04-12T16:56:04.624Z,966.9
2018-04-12T16:57:07.322Z,966.9
2018-04-12T16:58:09.642Z,966.8
2018-04-12T16:59:11.361Z,966.8
2018-04-12T17:00:12.834Z,966.7
2018-04-12T17:01:14.735Z,966.8
2018-04-12T17:02:16.391Z,966.8
2018-04-12T17:03:17.803Z,966.8
2018-04-12T17:04:19.280Z,966.8
2018-04-12T17:05:21.936Z,966.9
2018-04-12T17:06:24.747Z,966.9
2018-04-12T17:07:26.442Z,966.9
2018-04-12T17:08:28.186Z,966.9
2018-04-12T17:09:29.707Z,966.9
2018-04-12T17:10:31.099Z,966.9
2018-04-12T17:11:32.684Z,966.9
2018-04-12T17:12:34.637Z,966.9
2018-04-12T17:13:36.293Z,966.7
2018-04-12T17:14:38.015Z,966.9
2018-04-12T17:15:39.435Z,966.9
2018-04-12T17:16:44.007Z,966.9
2018-04-12T17:17:45.496Z,966.9
2018-04-12T17:18:49.960Z,966.8
2018-04-12T17:19:51.472Z,966.9
2018-04-12T17:20:52.951Z,966.9
2018-04-12T17:21:54.437Z,966.8
2018-04-12T17:22:59.036Z,966.9
2018-04-12T17:24:00.624Z,967
2018-04-12T17:25:12.427Z,966.9
2018-04-12T17:26:16.921Z,967
2018-04-12T17:27:18.422Z,967
2018-04-12T17:28:21.157Z,967
2018-04-12T17:29:22.865Z,966.9
2018-04-12T17:30:24.422Z,966.9
2018-04-12T17:31:25.903Z,966.9
2018-04-12T17:32:27.393Z,966.9
2018-04-12T17:33:28.852Z,967
2018-04-12T17:34:30.320Z,966.9
2018-04-12T17:35:31.813Z,966.9
2018-04-12T17:36:33.311Z,966.8
2018-04-12T17:37:34.728Z,967
2018-04-12T17:38:36.173Z,967
2018-04-12T17:39:38.554Z,966.9
2018-04-12T17:40:40.033Z,966.9
2018-04-12T17:41:41.784Z,966.9
2018-04-12T17:42:43.212Z,966.9
2018-04-12T17:43:44.646Z,966.9
2018-04-12T17:44:46.096Z,966.9
2018-04-12T17:45:47.772Z,966.8
2018-04-12T17:46:51.335Z,966.9
2018-04-12T17:47:53.237Z,966.7
2018-04-12T17:48:54.666Z,966.9
2018-04-12T17:49:56.107Z,966.9
2018-04-12T17:50:57.673Z,966.9
2018-04-12T17:51:59.232Z,967
2018-04-12T17:53:00.698Z,967
2018-04-12T17:54:02.816Z,967
2018-04-12T17:55:04.510Z,967
2018-04-12T17:56:06.173Z,966.9
2018-04-12T17:57:07.825Z,967
2018-04-12T17:58:09.321Z,967
2018-04-12T17:59:10.805Z,967
2018-04-12T18:00:12.260Z,967
2018-04-12T18:01:13.710Z,967
2018-04-12T18:02:15.474Z,966.8
2018-04-12T18:03:17.150Z,966.9
2018-04-12T18:04:18.791Z,967
2018-04-12T18:05:20.162Z,966.9
2018-04-12T18:06:22.017Z,967
2018-04-12T18:07:31.412Z,967
2018-04-12T18:08:35.116Z,967
2018-04-12T18:09:37.750Z,967
2018-04-12T18:10:42.074Z,967
2018-04-12T18:11:43.551Z,967
2018-04-12T18:12:44.949Z,967.1
2018-04-12T18:13:46.328Z,967.1
2018-04-12T18:14:50.825Z,967.1
2018-04-12T18:52:38.255Z,966.9
2018-04-12T18:53:39.659Z,967.2
2018-04-12T18:54:41.561Z,967.2
2018-04-12T18:55:43.038Z,967.2
2018-04-12T18:56:44.446Z,967.2
2018-04-12T18:57:48.488Z,967.2
2018-04-12T18:58:50.224Z,967.2
2018-04-12T18:59:51.604Z,967.3
2018-04-12T19:00:56.011Z,967.2
2018-04-12T19:01:57.597Z,967.2
2018-04-12T19:02:59.156Z,967.2
2018-04-12T19:04:00.658Z,967.3
2018-04-12T19:05:02.689Z,967.2
2018-04-12T19:06:04.510Z,967.2
2018-04-12T19:07:05.919Z,967.2
2018-04-12T19:08:07.923Z,967.2
2018-04-12T19:09:09.380Z,967.2
2018-04-12T19:10:10.873Z,967.2
2018-04-12T19:11:12.460Z,967.2
2018-04-12T19:12:14.043Z,967.2
2018-04-12T19:13:15.924Z,967.2
2018-04-12T19:14:17.442Z,967.1
2018-04-12T19:15:20.973Z,967.1
2018-04-12T19:16:22.511Z,967.1
2018-04-12T19:17:23.941Z,967.1
2018-04-12T19:18:25.904Z,966.8
2018-04-12T19:19:27.277Z,967
2018-04-12T19:20:28.773Z,966.9
2018-04-12T19:21:30.279Z,967
2018-04-12T19:22:31.800Z,967.1
2018-04-12T19:23:33.563Z,967
2018-04-12T19:24:35.111Z,967.1
2018-04-12T19:25:36.640Z,967
2018-04-12T19:26:38.215Z,967.1
2018-04-12T19:27:41.423Z,967.1
2018-04-12T19:28:42.912Z,967
2018-04-12T19:29:44.438Z,967.1
2018-04-12T19:30:45.936Z,967
2018-04-12T19:31:47.332Z,966.8
2018-04-12T19:32:48.712Z,967
2018-04-12T19:33:52.360Z,966.9
2018-04-12T19:34:56.674Z,966.8
2018-04-12T19:35:58.222Z,967
2018-04-12T19:36:59.598Z,966.9
2018-04-12T19:38:01.029Z,967.1
2018-04-12T19:39:03.221Z,967.1
2018-04-12T19:40:04.704Z,967
2018-04-12T19:41:06.200Z,967
2018-04-12T19:42:07.733Z,967
2018-04-12T19:43:09.180Z,967
2018-04-12T19:44:10.713Z,967
2018-04-12T19:45:12.132Z,967
2018-04-12T19:46:13.540Z,966.9
2018-04-12T19:47:14.881Z,966.8
2018-04-12T19:48:19.989Z,966.9
2018-04-12T19:49:21.777Z,966.9
2018-04-12T19:50:25.563Z,966.9
2018-04-12T19:51:27.347Z,966.9
2018-04-12T19:52:29.168Z,966.9
2018-04-12T19:53:30.726Z,966.9
2018-04-12T19:54:38.778Z,966.9
2018-04-12T19:55:40.132Z,966.9
2018-04-12T19:56:41.573Z,966.7
2018-04-12T19:57:42.957Z,966.5
2018-04-12T19:58:44.340Z,966.6
2018-04-12T19:59:45.840Z,966.9
2018-04-12T20:00:47.288Z,966.8
2018-04-12T20:01:48.703Z,966.8
2018-04-12T20:02:50.164Z,966.8
2018-04-12T20:03:51.585Z,966.8
2018-04-12T20:04:53.055Z,966.8
2018-04-12T20:05:54.472Z,966.8
2018-04-12T20:06:55.921Z,966.8
2018-04-12T20:07:57.583Z,966.8
2018-04-12T20:08:59.184Z,966.8
2018-04-12T20:10:00.669Z,966.8
2018-04-12T20:11:06.337Z,966.8
2018-04-12T20:12:07.884Z,966.8
2018-04-12T20:13:09.409Z,966.8
2018-04-12T20:14:10.833Z,966.8
2018-04-12T20:15:12.239Z,966.8
2018-04-12T20:16:13.689Z,966.8
2018-04-12T20:17:15.090Z,966.8
2018-04-12T20:18:16.449Z,966.8
2018-04-12T20:19:18.291Z,966.8
2018-04-12T20:20:20.511Z,966.8
2018-04-12T20:21:21.971Z,966.9
2018-04-12T20:22:23.396Z,966.9
2018-04-12T20:23:24.780Z,966.9
2018-04-12T20:24:26.165Z,966.8
2018-04-12T20:28:44.776Z,966.9
2018-04-12T20:29:51.348Z,966.9
2018-04-12T20:31:15.523Z,966.8
2018-04-12T20:32:41.426Z,966.9
2018-04-12T20:35:15.227Z,966.6
2018-04-12T20:36:27.190Z,966.8
2018-04-12T20:38:56.863Z,966.8
2018-04-12T20:43:12.037Z,966.8
2018-04-12T20:44:24.252Z,966.6
2018-04-12T20:45:45.357Z,966.8
2018-04-12T20:46:54.229Z,966.8
2018-04-12T20:48:06.427Z,966.8
2018-04-12T20:49:29.584Z,966.8
2018-04-12T20:50:36.354Z,966.5
2018-04-12T20:51:50.582Z,966.7
2018-04-12T20:52:58.519Z,966.7
2018-04-12T20:54:06.345Z,966.7
2018-04-12T20:56:53.572Z,966.7
2018-04-12T20:57:59.720Z,966.7
2018-04-12T20:59:26.159Z,966.7
2018-04-12T21:00:44.711Z,966.7
2018-04-12T21:02:11.860Z,966.7
2018-04-12T21:03:31.803Z,966.7
2018-04-12T21:04:44.191Z,966.5
2018-04-12T21:06:08.379Z,966.7
2018-04-12T21:08:36.290Z,966.7
2018-04-12T21:10:00.117Z,966.7
2018-04-12T21:12:58.185Z,966.7
2018-04-12T21:14:16.436Z,966.8
2018-04-12T21:15:47.753Z,966.8
2018-04-12T21:18:12.451Z,966.7
2018-04-12T21:19:22.289Z,966.7
2018-04-12T21:20:55.779Z,966.7
2018-04-12T21:22:34.246Z,966.6
2018-04-12T21:23:51.700Z,966.6
2018-04-12T21:25:03.818Z,966.6
2018-04-12T21:26:31.076Z,966.6
2018-04-12T21:27:50.422Z,966.6
2018-04-12T21:29:22.066Z,966.4
2018-04-12T21:32:51.789Z,966.6
2018-04-12T21:34:22.549Z,966.5
2018-04-12T21:35:49.917Z,966.6
2018-04-12T21:37:12.026Z,966.6
2018-04-12T21:46:03.236Z,966.9
2018-04-12T22:00:13.692Z,966.9
2018-04-12T22:06:35.037Z,966.8
2018-04-12T22:09:40.197Z,966.9
2018-04-12T22:14:38.470Z,966.7
2018-04-12T22:19:30.507Z,967
2018-04-12T22:36:15.621Z,967.1
2018-04-12T22:48:42.515Z,967
2018-04-12T22:57:59.508Z,966.9
2018-04-12T23:02:38.634Z,967.1
2018-04-12T23:08:31.371Z,966.9
2018-04-12T23:10:06.562Z,967
2018-04-12T23:13:32.362Z,967.1
2018-04-12T23:22:46.721Z,967.1
2018-04-12T23:27:06.613Z,967.1
2018-04-12T23:28:40.665Z,967.1
2018-04-12T23:37:30.154Z,967
2018-04-12T23:47:08.110Z,967
2018-04-12T23:48:46.790Z,967
2018-04-12T23:50:35.668Z,967
2018-04-12T23:53:56.728Z,966.7
2018-04-12T23:55:36.609Z,966.9
